Time;durP1;ratioP1;P1;durP2;ratioP2;P2;SDS_P1;SDS_P2;PMS_P1;PMS_P2;Temp;Humidity;BMP_temperature;BMP_pressure;BME280_temperature;BME280_humidity;BME280_pressure;Samples;Min_cycle;Max_cycle;Signal;HPM_P1;HPM_P2
2021/08/27 00:00:23;;;;;;;2.37;1.07;;;;;;;12.29;83.88;95893.19;1779118;81;20997;-83
2021/08/27 00:02:51;;;;;;;3.20;1.60;;;;;;;12.29;83.96;95886.67;1770419;79;21092;-83
2021/08/27 00:05:16;;;;;;;2.10;1.10;;;;;;;12.28;83.97;95885.08;1773260;79;21305;-83
2021/08/27 00:07:42;;;;;;;1.10;0.90;;;;;;;12.28;83.88;95888.98;1756632;79;21008;-83
2021/08/27 00:10:10;;;;;;;2.08;1.05;;;;;;;12.30;83.90;95892.18;1768552;81;21070;-83
2021/08/27 00:12:37;;;;;;;2.20;1.10;;;;;;;12.33;83.87;95891.77;1764466;81;21006;-83
2021/08/27 00:15:06;;;;;;;1.70;1.20;;;;;;;12.36;83.79;95894.46;1773959;80;21349;-84
2021/08/27 00:17:32;;;;;;;2.35;1.27;;;;;;;12.36;83.55;95901.48;1771053;80;20943;-84
2021/08/27 00:19:58;;;;;;;3.45;1.47;;;;;;;12.38;83.68;95908.11;1778715;79;20987;-83
2021/08/27 00:22:26;;;;;;;1.62;1.07;;;;;;;12.37;83.66;95906.52;1769654;79;21004;-83
2021/08/27 00:24:52;;;;;;;2.35;0.90;;;;;;;12.34;83.79;95905.59;1772799;79;21321;-84
2021/08/27 00:27:18;;;;;;;2.08;1.22;;;;;;;12.35;83.84;95901.98;1776972;79;20990;-83
2021/08/27 00:29:44;;;;;;;1.55;0.95;;;;;;;12.38;84.05;95901.59;1741875;81;21055;-84
2021/08/27 00:32:09;;;;;;;2.10;1.00;;;;;;;12.39;83.96;95898.48;1763794;81;21283;-83
2021/08/27 00:34:35;;;;;;;1.52;1.02;;;;;;;12.39;83.81;95905.80;1764834;81;20939;-83
2021/08/27 00:37:04;;;;;;;2.37;1.40;;;;;;;12.38;83.76;95903.41;1762667;81;20953;-84
2021/08/27 00:39:29;;;;;;;2.45;1.15;;;;;;;12.38;83.89;95899.50;1765411;79;21002;-83
2021/08/27 00:41:54;;;;;;;2.00;1.15;;;;;;;12.39;84.08;95901.89;1779862;79;21368;-83
2021/08/27 00:44:20;;;;;;;1.12;0.90;;;;;;;12.43;84.16;95900.47;1770774;79;21081;-83
2021/08/27 00:46:46;;;;;;;1.30;0.80;;;;;;;12.45;84.04;95895.05;1773900;79;20988;-83
2021/08/27 00:49:12;;;;;;;1.77;1.10;;;;;;;12.45;83.81;95887.23;1775436;81;21444;-83
2021/08/27 00:51:37;;;;;;;2.05;1.10;;;;;;;12.43;83.90;95897.87;1778165;81;20979;-83
2021/08/27 00:54:03;;;;;;;2.47;1.30;;;;;;;12.43;83.97;95895.27;1775489;81;21007;-83
2021/08/27 00:56:30;;;;;;;1.77;0.82;;;;;;;12.44;83.95;95890.85;1778739;79;21072;-83
2021/08/27 00:58:58;;;;;;;1.37;1.05;;;;;;;12.44;84.01;95883.83;1777084;79;20949;-83
2021/08/27 01:01:24;;;;;;;1.47;0.85;;;;;;;12.43;83.70;95883.54;1777438;79;20984;-84
2021/08/27 01:03:50;;;;;;;1.15;0.70;;;;;;;12.40;83.64;95880.55;1775619;79;21012;-83
2021/08/27 01:06:27;;;;;;;1.20;1.00;;;;;;;12.37;83.54;95886.97;1772802;79;21388;-83
2021/08/27 01:09:01;;;;;;;1.82;1.00;;;;;;;12.36;83.57;95887.95;1774176;79;21438;-83
2021/08/27 01:11:48;;;;;;;1.32;1.05;;;;;;;12.37;83.71;95889.58;1775906;81;20940;-83
2021/08/27 01:14:17;;;;;;;2.22;0.93;;;;;;;12.35;83.63;95890.26;1777575;79;21431;-83
2021/08/27 01:16:53;;;;;;;2.35;0.72;;;;;;;12.30;83.71;95887.47;1768654;79;21403;-83
2021/08/27 01:20:10;;;;;;;1.67;1.00;;;;;;;12.32;83.87;95888.86;1779061;81;21375;-83
2021/08/27 01:23:21;;;;;;;1.60;0.60;;;;;;;12.33;83.85;95890.47;1776045;79;20931;-83
2021/08/27 01:25:54;;;;;;;2.77;1.12;;;;;;;12.35;83.74;95895.47;1774723;79;20977;-83
2021/08/27 01:28:21;;;;;;;2.20;0.95;;;;;;;12.39;84.14;95893.28;1771013;79;21338;-83
2021/08/27 01:31:15;;;;;;;1.35;0.75;;;;;;;12.42;84.29;95904.59;1771256;81;20951;-83
2021/08/27 01:33:53;;;;;;;1.82;0.90;;;;;;;12.44;84.16;95899.47;1765565;81;20951;-84
2021/08/27 01:36:19;;;;;;;2.15;1.10;;;;;;;12.44;84.09;95902.08;1772801;81;20947;-83
2021/08/27 01:38:45;;;;;;;1.62;0.82;;;;;;;12.48;84.29;95898.05;1770564;81;21314;-83
2021/08/27 01:41:11;;;;;;;1.20;0.85;;;;;;;12.52;84.18;95900.53;1773905;79;20973;-83
2021/08/27 01:43:36;;;;;;;4.20;1.00;;;;;;;12.51;84.20;95898.94;1721262;81;20947;-83
2021/08/27 01:46:02;;;;;;;1.32;0.85;;;;;;;12.50;84.27;95896.53;1745268;79;21037;-83
2021/08/27 01:48:32;;;;;;;1.20;0.62;;;;;;;12.49;84.38;95901.45;1770922;79;21399;-84
2021/08/27 01:50:58;;;;;;;2.30;0.80;;;;;;;12.50;84.40;95906.45;1770860;79;21021;-83
2021/08/27 01:53:28;;;;;;;2.10;0.90;;;;;;;12.51;84.35;95910.66;1763944;81;21014;-83
2021/08/27 01:56:00;;;;;;;3.92;1.00;;;;;;;12.51;84.34;95911.96;1768851;79;21014;-83
2021/08/27 01:58:26;;;;;;;3.72;1.25;;;;;;;12.55;84.46;95922.30;1771192;79;20941;-83
2021/08/27 02:00:54;;;;;;;4.78;1.60;;;;;;;12.58;84.48;95925.80;1778359;81;21016;-83
2021/08/27 02:03:20;;;;;;;5.50;1.62;;;;;;;12.56;84.37;95922.59;1778357;79;21012;-83
2021/08/27 02:05:46;;;;;;;2.37;1.65;;;;;;;12.56;84.42;95922.59;1773854;79;21431;-83
2021/08/27 02:08:12;;;;;;;2.60;1.70;;;;;;;12.57;84.56;95920.28;1774135;81;20970;-83
2021/08/27 02:10:37;;;;;;;3.80;1.70;;;;;;;12.58;84.48;95917.97;1775383;79;21050;-83
2021/08/27 02:13:03;;;;;;;3.17;1.62;;;;;;;12.57;84.53;95915.07;1774932;79;21428;-83
2021/08/27 02:15:29;;;;;;;3.40;1.98;;;;;;;12.59;84.56;95917.47;1768752;79;21044;-83
2021/08/27 02:17:54;;;;;;;2.60;1.55;;;;;;;12.60;84.50;95915.95;1723390;81;21041;-83
2021/08/27 02:20:20;;;;;;;5.20;2.00;;;;;;;12.59;84.69;95918.27;1775376;79;21022;-84
2021/08/27 02:22:49;;;;;;;4.00;2.27;;;;;;;12.55;84.98;95915.78;1766065;81;20978;-83
2021/08/27 02:25:16;;;;;;;6.80;2.42;;;;;;;12.55;84.96;95909.77;1757897;79;20992;-83
2021/08/27 02:27:43;;;;;;;4.85;2.02;;;;;;;12.56;84.99;95916.58;1774438;79;20985;-83
2021/08/27 02:30:09;;;;;;;3.70;2.08;;;;;;;12.59;84.95;95911.75;1770099;79;21022;-83
2021/08/27 02:32:35;;;;;;;4.70;2.17;;;;;;;12.68;85.10;95920.63;1776519;79;20937;-83
2021/08/27 02:35:02;;;;;;;2.67;2.05;;;;;;;12.73;84.97;95915.13;1734497;80;20955;-83
2021/08/27 02:37:37;;;;;;;6.08;2.67;;;;;;;12.76;84.77;95917.81;1779025;81;20961;-83
2021/08/27 02:40:05;;;;;;;3.98;3.12;;;;;;;12.75;84.67;95922.73;1762048;79;21446;-84
2021/08/27 02:42:31;;;;;;;4.83;2.50;;;;;;;12.71;84.63;95921.05;1777246;81;20970;-83
2021/08/27 02:44:59;;;;;;;4.05;2.62;;;;;;;12.67;84.69;95921.14;1773277;79;21465;-83
2021/08/27 02:47:25;;;;;;;4.80;2.42;;;;;;;12.67;84.65;95921.64;1776743;81;20926;-83
2021/08/27 02:49:51;;;;;;;3.02;2.27;;;;;;;12.68;84.74;95923.23;1765749;81;20983;-83
2021/08/27 02:52:44;;;;;;;7.67;3.08;;;;;;;12.70;84.75;95922.56;1764729;79;21039;-83
2021/08/27 02:55:18;;;;;;;5.83;2.75;;;;;;;12.72;84.64;95928.36;1786569;79;20997;-83
2021/08/27 02:58:00;;;;;;;4.33;3.05;;;;;;;12.75;84.66;95928.75;1774344;79;21077;-83
2021/08/27 03:00:33;;;;;;;5.90;3.05;;;;;;;12.75;84.78;95926.64;1776855;81;21022;-83
2021/08/27 03:03:03;;;;;;;5.67;3.00;;;;;;;12.76;85.02;95925.63;1741003;81;20935;-83
2021/08/27 03:05:33;;;;;;;3.05;2.55;;;;;;;12.79;85.03;95929.92;1736408;79;21037;-83
2021/08/27 03:08:02;;;;;;;5.17;3.12;;;;;;;12.80;84.79;95927.61;1768075;79;21079;-83
2021/08/27 03:10:36;;;;;;;5.72;2.90;;;;;;;12.81;84.92;95936.23;1777854;81;20973;-83
2021/08/27 03:13:11;;;;;;;4.70;3.60;;;;;;;12.84;84.85;95934.01;1770433;81;20998;-83
2021/08/27 03:15:41;;;;;;;4.65;3.90;;;;;;;12.87;84.78;95933.63;1769300;81;21018;-83
2021/08/27 03:18:18;;;;;;;5.10;4.30;;;;;;;12.90;84.92;95942.83;1776295;81;20973;-84
2021/08/27 03:21:14;;;;;;;6.10;5.47;;;;;;;12.89;84.73;95940.73;1777640;81;21032;-84
2021/08/27 03:23:39;;;;;;;7.53;5.58;;;;;;;12.88;84.82;95943.05;1771772;79;20974;-83
2021/08/27 03:26:08;;;;;;;5.37;4.87;;;;;;;12.86;84.64;95935.94;1775658;80;20943;-84
2021/08/27 03:28:37;;;;;;;5.90;4.80;;;;;;;12.89;84.74;95938.63;1779576;81;20994;-83
2021/08/27 03:31:03;;;;;;;6.25;4.85;;;;;;;12.90;84.70;95942.33;1757324;81;20978;-84
2021/08/27 03:33:28;;;;;;;6.03;4.55;;;;;;;12.90;84.67;95946.23;1778822;80;20953;-84
2021/08/27 03:35:55;;;;;;;5.87;5.28;;;;;;;12.90;84.58;95942.33;1764362;79;20975;-84
2021/08/27 03:38:23;;;;;;;5.35;4.47;;;;;;;12.91;84.81;95945.73;1772654;79;21034;-83
2021/08/27 03:40:49;;;;;;;5.22;4.72;;;;;;;12.92;84.74;95947.34;1780315;79;21037;-84
2021/08/27 03:43:15;;;;;;;6.62;4.35;;;;;;;12.90;84.41;95946.23;1777432;79;20942;-84
2021/08/27 03:45:41;;;;;;;5.15;4.00;;;;;;;12.88;84.37;95950.06;1766375;79;21479;-84
2021/08/27 03:48:07;;;;;;;6.10;4.58;;;;;;;12.91;84.52;95949.65;1774944;79;20966;-83
2021/08/27 03:50:32;;;;;;;5.35;4.55;;;;;;;12.97;84.49;95946.20;1776801;79;20966;-83
2021/08/27 03:52:58;;;;;;;6.92;5.00;;;;;;;12.99;84.10;95945.99;1770447;79;21413;-83
2021/08/27 03:55:24;;;;;;;6.47;4.95;;;;;;;12.99;84.10;95945.99;1763840;80;21046;-83
2021/08/27 03:57:50;;;;;;;6.55;4.67;;;;;;;12.98;84.33;95944.39;1758934;80;21029;-83
2021/08/27 04:00:23;;;;;;;5.67;5.10;;;;;;;13.00;84.46;95952.81;1758974;80;20934;-83
2021/08/27 04:02:51;;;;;;;6.65;5.33;;;;;;;12.97;84.41;95951.42;1753516;81;21376;-84
2021/08/27 04:05:19;;;;;;;5.92;5.20;;;;;;;13.00;84.41;95950.20;1759496;80;21062;-84
2021/08/27 04:07:46;;;;;;;5.67;5.17;;;;;;;13.03;84.42;95946.70;1754505;80;21032;-83
2021/08/27 04:10:14;;;;;;;6.00;5.35;;;;;;;13.05;84.56;95951.70;1760135;81;21480;-83
2021/08/27 04:12:40;;;;;;;7.87;5.83;;;;;;;13.01;84.47;95953.91;1758694;81;21017;-83
2021/08/27 04:15:12;;;;;;;5.78;5.00;;;;;;;12.96;84.64;95953.73;1752578;81;21011;-83
2021/08/27 04:17:38;;;;;;;7.80;5.33;;;;;;;12.89;84.52;95950.36;1716839;82;20954;-83
2021/08/27 04:20:06;;;;;;;6.10;5.22;;;;;;;12.87;84.48;95945.86;1802420;78;21378;-84
2021/08/27 04:22:31;;;;;;;7.05;5.30;;;;;;;12.88;84.61;95951.37;1797554;79;21327;-83
2021/08/27 04:24:57;;;;;;;4.78;4.28;;;;;;;12.90;84.64;95954.57;1775910;79;20936;-83
2021/08/27 04:27:23;;;;;;;5.15;4.20;;;;;;;12.92;84.53;95957.77;1800373;79;21025;-83
2021/08/27 04:29:50;;;;;;;5.95;5.03;;;;;;;12.92;84.33;95964.28;1803212;79;21043;-84
2021/08/27 04:32:17;;;;;;;7.00;4.05;;;;;;;12.94;84.54;95967.48;1801994;79;21011;-84
2021/08/27 04:34:43;;;;;;;5.80;4.55;;;;;;;12.93;84.35;95970.59;1795208;78;20949;-83
2021/08/27 04:37:08;;;;;;;5.15;4.00;;;;;;;12.96;84.38;95971.98;1793967;78;20932;-83
2021/08/27 04:39:34;;;;;;;5.53;4.25;;;;;;;12.97;84.31;95970.98;1802770;79;20957;-83
2021/08/27 04:42:02;;;;;;;5.08;4.12;;;;;;;12.96;84.28;95970.68;1801785;78;21534;-83
2021/08/27 04:44:28;;;;;;;5.67;4.80;;;;;;;12.94;84.37;95974.00;1774533;79;20971;-84
2021/08/27 04:46:54;;;;;;;6.37;5.25;;;;;;;12.93;84.44;95975.02;1794831;79;21090;-83
2021/08/27 04:49:20;;;;;;;7.03;4.67;;;;;;;12.89;84.23;95973.33;1797120;78;21019;-84
2021/08/27 04:51:45;;;;;;;4.87;4.37;;;;;;;12.85;84.24;95971.31;1804035;78;21390;-84
2021/08/27 04:54:11;;;;;;;6.28;5.03;;;;;;;12.85;84.56;95974.75;1743783;79;21114;-84
2021/08/27 04:56:37;;;;;;;6.00;5.40;;;;;;;12.87;84.53;95971.94;1771627;79;21007;-80
2021/08/27 04:59:03;;;;;;;6.78;5.28;;;;;;;12.89;84.50;95975.94;1769555;80;20969;-81
2021/08/27 05:01:29;;;;;;;6.10;5.50;;;;;;;12.91;84.72;95975.22;1772555;81;20977;-80
2021/08/27 05:03:54;;;;;;;5.55;4.95;;;;;;;12.97;84.95;95970.98;1773229;79;21013;-81
2021/08/27 05:06:20;;;;;;;5.47;4.90;;;;;;;12.98;84.86;95972.58;1772970;80;20951;-80
2021/08/27 05:08:46;;;;;;;5.58;5.08;;;;;;;13.02;84.79;95967.27;1760115;79;21239;-81
2021/08/27 05:11:11;;;;;;;5.30;4.80;;;;;;;13.06;84.80;95968.45;1761530;80;21396;-80
2021/08/27 05:13:37;;;;;;;5.00;4.50;;;;;;;13.14;84.72;95974.72;1731716;81;20965;-80
2021/08/27 05:16:04;;;;;;;5.17;4.67;;;;;;;13.27;84.99;95969.19;1774807;77;21055;-80
2021/08/27 05:18:30;;;;;;;5.40;4.37;;;;;;;13.38;84.94;95969.84;1809943;78;21005;-80
2021/08/27 05:20:56;;;;;;;5.33;4.83;;;;;;;13.43;84.87;95974.72;1791519;78;20906;-80
2021/08/27 05:23:22;;;;;;;6.28;5.67;;;;;;;13.46;84.58;95980.02;1789714;79;20938;-80
2021/08/27 05:25:48;;;;;;;5.03;4.40;;;;;;;13.38;84.56;95981.58;1806429;78;21375;-81
2021/08/27 05:28:14;;;;;;;5.03;4.50;;;;;;;13.36;84.41;95982.30;1805069;78;20985;-80
2021/08/27 05:30:39;;;;;;;5.03;3.67;;;;;;;13.28;84.27;95987.74;1780039;78;21039;-80
2021/08/27 05:33:06;;;;;;;4.75;4.15;;;;;;;13.29;84.11;95988.84;1798234;78;21020;-80
2021/08/27 05:35:31;;;;;;;5.70;4.33;;;;;;;13.20;84.26;95989.59;1800576;78;21064;-80
2021/08/27 05:37:57;;;;;;;6.35;4.35;;;;;;;13.20;84.50;95984.87;1809741;78;21023;-80
2021/08/27 05:40:23;;;;;;;5.03;3.87;;;;;;;13.22;84.74;95981.56;1799310;78;21418;-80
2021/08/27 05:42:49;;;;;;;4.55;4.00;;;;;;;13.25;84.67;95986.36;1807993;78;20998;-80
2021/08/27 05:45:15;;;;;;;4.67;3.72;;;;;;;13.23;84.32;95985.77;1797171;78;21083;-80
2021/08/27 05:47:41;;;;;;;4.10;3.70;;;;;;;13.26;84.02;95987.16;1810194;78;21001;-80
2021/08/27 05:50:09;;;;;;;4.45;4.05;;;;;;;13.27;84.04;95986.14;1809023;78;20980;-81
2021/08/27 05:52:35;;;;;;;5.05;3.85;;;;;;;13.33;83.98;95987.91;1810362;78;21420;-80
2021/08/27 05:55:01;;;;;;;5.17;4.10;;;;;;;13.38;84.21;95986.30;1779073;79;21040;-80
2021/08/27 05:57:26;;;;;;;5.78;4.22;;;;;;;13.39;83.65;95989.20;1757279;80;20964;-80
2021/08/27 05:59:52;;;;;;;5.50;4.20;;;;;;;13.44;83.74;95989.88;1750254;80;21066;-80
2021/08/27 06:02:19;;;;;;;6.37;4.50;;;;;;;13.44;83.79;95988.56;1746283;80;21367;-81
2021/08/27 06:04:45;;;;;;;6.55;5.10;;;;;;;13.42;83.25;95990.59;1746789;80;20973;-81
2021/08/27 06:07:11;;;;;;;6.10;4.53;;;;;;;13.44;83.53;95991.98;1749779;81;21500;-80
2021/08/27 06:09:37;;;;;;;6.72;5.87;;;;;;;13.47;83.84;95994.67;1756024;81;20896;-80
2021/08/27 06:12:03;;;;;;;7.95;6.28;;;;;;;13.46;83.36;95996.98;1751668;81;20959;-80
2021/08/27 06:14:29;;;;;;;7.00;5.95;;;;;;;13.46;83.20;95999.59;1758018;80;20940;-80
2021/08/27 06:16:55;;;;;;;7.53;6.08;;;;;;;13.44;83.07;96001.61;1750507;81;21007;-81
2021/08/27 06:19:21;;;;;;;7.72;6.35;;;;;;;13.45;83.47;95997.49;1748614;80;21356;-80
2021/08/27 06:21:47;;;;;;;8.18;6.25;;;;;;;13.53;83.71;96005.59;1751016;80;20959;-80
2021/08/27 06:24:12;;;;;;;10.15;7.55;;;;;;;13.59;83.92;96008.67;1753348;80;20885;-81
2021/08/27 06:26:38;;;;;;;9.53;7.62;;;;;;;13.61;83.75;96009.25;1750373;80;20916;-81
2021/08/27 06:29:04;;;;;;;9.55;6.70;;;;;;;13.57;83.52;96013.30;1746912;79;21001;-80
2021/08/27 06:31:31;;;;;;;8.63;7.47;;;;;;;13.61;84.14;96011.86;1753100;81;20900;-80
2021/08/27 06:33:56;;;;;;;9.38;7.58;;;;;;;13.61;83.54;96014.48;1748192;81;21038;-81
2021/08/27 06:36:22;;;;;;;11.90;7.70;;;;;;;13.60;83.33;96015.99;1754171;80;20978;-80
2021/08/27 06:38:48;;;;;;;9.80;8.25;;;;;;;13.61;83.39;96010.56;1754980;80;21337;-81
2021/08/27 06:41:14;;;;;;;10.03;8.60;;;;;;;13.57;82.79;96013.80;1753093;81;20936;-79
2021/08/27 06:43:43;;;;;;;9.23;8.23;;;;;;;13.49;82.97;96009.61;1748520;80;20927;-79
2021/08/27 06:46:12;;;;;;;8.85;7.87;;;;;;;13.55;83.59;96012.71;1750532;81;21443;-79
2021/08/27 06:48:38;;;;;;;10.08;8.55;;;;;;;13.59;83.43;96016.50;1746042;81;20979;-80
2021/08/27 06:51:04;;;;;;;38.70;16.62;;;;;;;13.61;83.19;96011.86;1733481;81;20989;-80
2021/08/27 06:53:29;;;;;;;126.47;64.80;;;;;;;13.66;83.28;96016.45;1746396;80;20934;-79
2021/08/27 06:55:55;;;;;;;45.85;28.87;;;;;;;13.67;83.48;96016.27;1780300;78;21338;-79
2021/08/27 06:58:21;;;;;;;13.00;9.48;;;;;;;13.69;83.61;96014.75;1800582;78;21007;-80
2021/08/27 07:00:47;;;;;;;10.80;9.50;;;;;;;13.71;83.25;96021.36;1790984;78;20950;-79
2021/08/27 07:03:12;;;;;;;10.28;8.93;;;;;;;13.67;82.33;96022.00;1757486;80;21006;-79
2021/08/27 07:05:38;;;;;;;10.18;8.35;;;;;;;13.65;82.81;96014.34;1743200;81;21098;-80
2021/08/27 07:08:04;;;;;;;11.08;8.63;;;;;;;13.70;82.95;96017.66;1741175;80;20991;-79
2021/08/27 07:10:30;;;;;;;11.75;8.38;;;;;;;13.71;82.78;96016.14;1787639;78;21357;-79
2021/08/27 07:12:58;;;;;;;10.48;8.55;;;;;;;13.69;82.48;96016.05;1776773;78;20963;-80
2021/08/27 07:15:24;;;;;;;11.68;8.68;;;;;;;13.64;82.69;96021.88;1793032;78;21358;-80
2021/08/27 07:17:49;;;;;;;11.97;8.88;;;;;;;13.64;82.58;96021.88;1786156;78;21023;-80
2021/08/27 07:20:15;;;;;;;11.40;9.03;;;;;;;13.67;82.47;96016.77;1774962;78;21289;-79
2021/08/27 07:22:41;;;;;;;11.48;9.08;;;;;;;13.70;82.51;96016.34;1790555;79;21352;-79
2021/08/27 07:25:09;;;;;;;10.65;9.00;;;;;;;13.75;82.82;96022.53;1799614;79;20960;-79
2021/08/27 07:27:34;;;;;;;13.10;11.68;;;;;;;13.79;82.38;96015.88;1800663;79;20964;-80
2021/08/27 07:30:00;;;;;;;11.65;9.30;;;;;;;13.82;82.94;96017.26;1800427;79;21353;-80
2021/08/27 07:32:26;;;;;;;10.55;9.25;;;;;;;13.81;82.82;96016.97;1801352;78;20979;-80
2021/08/27 07:34:52;;;;;;;10.88;9.45;;;;;;;13.88;82.83;96022.16;1755790;80;20932;-80
2021/08/27 07:37:17;;;;;;;11.10;8.58;;;;;;;13.90;82.35;96029.28;1757117;80;21492;-79
2021/08/27 07:39:43;;;;;;;13.03;10.75;;;;;;;13.93;82.16;96030.95;1749131;80;20959;-80
2021/08/27 07:42:09;;;;;;;15.80;14.20;;;;;;;13.99;82.51;96031.44;1758684;80;20969;-79
2021/08/27 07:44:36;;;;;;;13.15;11.10;;;;;;;14.04;82.14;96036.02;1734471;81;21303;-79
2021/08/27 07:47:02;;;;;;;12.65;11.33;;;;;;;13.99;82.12;96034.05;1750019;80;21006;-80
2021/08/27 07:49:28;;;;;;;11.18;9.15;;;;;;;13.99;82.21;96034.53;1756330;81;20945;-80
2021/08/27 07:51:54;;;;;;;11.50;9.70;;;;;;;13.99;82.07;96032.74;1756263;81;21427;-80
2021/08/27 07:54:20;;;;;;;10.15;8.83;;;;;;;14.02;82.11;96034.93;1786999;79;20985;-80
2021/08/27 07:56:46;;;;;;;11.57;9.35;;;;;;;14.07;82.37;96038.20;1808145;79;20992;-81
2021/08/27 07:59:12;;;;;;;13.35;10.03;;;;;;;14.08;82.28;96045.03;1808284;78;20949;-80
2021/08/27 08:01:38;;;;;;;14.00;10.88;;;;;;;14.07;82.21;96042.12;1814091;78;20966;-80
2021/08/27 08:04:05;;;;;;;13.93;10.35;;;;;;;14.04;82.06;96041.25;1808649;78;21033;-80
2021/08/27 08:06:31;;;;;;;13.45;10.98;;;;;;;13.92;81.77;96045.03;1802866;78;21003;-80
2021/08/27 08:08:58;;;;;;;12.25;10.58;;;;;;;13.85;81.85;96046.09;1806916;78;20959;-80
2021/08/27 08:11:24;;;;;;;15.05;11.88;;;;;;;13.85;82.07;96043.48;1805128;78;20969;-80
2021/08/27 08:13:50;;;;;;;13.83;12.15;;;;;;;13.84;82.05;96047.91;1801077;77;20940;-80
2021/08/27 08:16:15;;;;;;;14.00;10.78;;;;;;;13.78;81.88;96048.22;1779937;79;21366;-80
2021/08/27 08:18:41;;;;;;;13.58;12.18;;;;;;;13.68;81.71;96055.72;1806124;78;20922;-80
2021/08/27 08:21:07;;;;;;;14.15;10.78;;;;;;;13.59;81.79;96051.73;1804103;78;20961;-80
2021/08/27 08:23:33;;;;;;;13.95;12.20;;;;;;;13.57;82.26;96051.15;1811346;78;20952;-80
2021/08/27 08:25:59;;;;;;;12.53;11.18;;;;;;;13.57;82.32;96056.38;1812552;78;20991;-80
2021/08/27 08:28:24;;;;;;;15.40;11.97;;;;;;;13.64;82.56;96053.72;1810404;78;20985;-80
2021/08/27 08:30:51;;;;;;;12.98;11.50;;;;;;;13.71;83.01;96055.80;1805603;78;20991;-80
2021/08/27 08:33:18;;;;;;;13.93;11.93;;;;;;;13.71;82.55;96059.72;1811345;78;20991;-80
2021/08/27 08:35:43;;;;;;;15.63;14.10;;;;;;;13.75;82.73;96062.20;1808767;78;20967;-80
2021/08/27 08:38:09;;;;;;;11.43;10.35;;;;;;;13.83;82.96;96063.28;1806715;78;21332;-80
2021/08/27 08:40:42;;;;;;;12.20;10.90;;;;;;;13.88;82.46;96062.64;1808706;78;20892;-80
2021/08/27 08:43:09;;;;;;;13.35;12.03;;;;;;;13.92;82.65;96065.12;1812895;78;20998;-80
2021/08/27 08:45:39;;;;;;;13.35;11.73;;;;;;;13.91;81.80;96063.52;1805711;78;20976;-81
2021/08/27 08:48:06;;;;;;;13.55;12.25;;;;;;;13.95;82.13;96059.47;1808332;79;20966;-80
2021/08/27 08:50:32;;;;;;;13.55;12.15;;;;;;;13.97;82.11;96064.78;1805210;78;21326;-80
2021/08/27 08:52:58;;;;;;;16.67;13.03;;;;;;;14.02;82.00;96061.56;1814034;79;20964;-80
2021/08/27 08:55:24;;;;;;;13.50;12.13;;;;;;;14.07;82.21;96070.36;1808414;78;21013;-80
2021/08/27 08:57:51;;;;;;;11.43;10.30;;;;;;;14.13;81.87;96065.58;1809976;77;21042;-80
2021/08/27 09:00:17;;;;;;;12.00;10.85;;;;;;;14.11;81.62;96069.42;1787435;79;21433;-80
2021/08/27 09:02:42;;;;;;;12.45;11.15;;;;;;;14.09;81.64;96069.63;1807643;77;21018;-80
2021/08/27 09:05:09;;;;;;;12.35;11.15;;;;;;;14.14;81.78;96071.61;1802519;77;21402;-80
2021/08/27 09:07:34;;;;;;;12.90;11.60;;;;;;;14.17;81.66;96073.02;1781709;79;20977;-80
2021/08/27 09:10:02;;;;;;;12.80;11.25;;;;;;;14.17;81.96;96081.66;1814856;78;21284;-80
2021/08/27 09:12:29;;;;;;;11.97;10.53;;;;;;;14.10;81.45;96079.58;1812813;78;20955;-80
2021/08/27 09:15:05;;;;;;;11.60;10.43;;;;;;;14.09;81.64;96080.08;1785432;79;21317;-80
2021/08/27 09:17:39;;;;;;;12.68;10.70;;;;;;;14.04;80.80;96076.52;1779730;79;20977;-80
2021/08/27 09:20:08;;;;;;;12.78;10.60;;;;;;;14.01;81.07;96086.08;1800015;77;20970;-80
2021/08/27 09:22:53;;;;;;;11.75;10.55;;;;;;;14.01;81.47;96080.34;1801891;77;21743;-80
2021/08/27 09:25:23;;;;;;;12.18;10.00;;;;;;;13.98;81.15;96081.25;1809702;78;20991;-80
2021/08/27 09:28:12;;;;;;;13.45;10.25;;;;;;;13.95;81.32;96087.70;1807273;77;21398;-80
2021/08/27 09:30:54;;;;;;;11.38;10.23;;;;;;;13.97;81.12;96085.67;1813465;78;21353;-80
2021/08/27 09:33:24;;;;;;;11.48;10.35;;;;;;;14.03;81.84;96080.94;1806453;77;20977;-80
2021/08/27 09:36:01;;;;;;;13.88;11.95;;;;;;;14.11;82.07;96081.98;1811796;78;21435;-80
2021/08/27 09:38:34;;;;;;;14.53;11.08;;;;;;;14.12;81.57;96084.08;1799338;78;21002;-80
2021/08/27 09:41:09;;;;;;;12.63;10.65;;;;;;;14.15;82.20;96081.55;1806245;77;20924;-80
2021/08/27 09:43:53;;;;;;;13.53;11.12;;;;;;;14.18;82.07;96085.07;1811869;77;21028;-80
2021/08/27 09:46:38;;;;;;;11.63;10.53;;;;;;;14.15;81.92;96082.34;1806832;77;20983;-81
2021/08/27 09:49:08;;;;;;;11.93;10.72;;;;;;;14.16;81.52;96087.09;1807482;77;21558;-80
2021/08/27 09:51:43;;;;;;;11.93;10.72;;;;;;;14.13;81.99;96085.69;1718576;78;21426;-81
2021/08/27 09:54:08;;;;;;;12.15;10.90;;;;;;;14.12;82.14;96085.39;1805068;77;20994;-80
2021/08/27 09:56:49;;;;;;;11.93;10.35;;;;;;;14.10;81.74;96089.52;1805381;78;20965;-81
2021/08/27 09:59:15;;;;;;;10.68;9.58;;;;;;;14.07;82.13;96086.53;1795037;78;20964;-80
2021/08/27 10:01:45;;;;;;;11.38;10.18;;;;;;;14.09;81.65;96091.84;1784745;78;21011;-80
2021/08/27 10:04:11;;;;;;;11.18;9.93;;;;;;;14.11;81.30;96095.55;1726248;81;20981;-80
2021/08/27 10:06:38;;;;;;;10.38;9.38;;;;;;;14.15;81.84;96097.23;1745201;80;21338;-80
2021/08/27 10:09:03;;;;;;;12.60;10.98;;;;;;;14.17;81.81;96098.64;1809474;78;21031;-80
2021/08/27 10:11:29;;;;;;;12.73;10.82;;;;;;;14.15;81.46;96095.92;1800268;78;21036;-80
2021/08/27 10:13:55;;;;;;;11.30;10.10;;;;;;;14.12;81.85;96094.53;1790476;78;20936;-81
2021/08/27 10:16:21;;;;;;;12.18;9.23;;;;;;;14.12;81.88;96095.34;1796113;78;21090;-80
2021/08/27 10:18:46;;;;;;;11.33;9.73;;;;;;;14.11;81.61;96096.85;1779912;79;20964;-81
2021/08/27 10:21:13;;;;;;;13.50;11.30;;;;;;;14.10;81.63;96101.28;1803971;78;21031;-80
2021/08/27 10:23:39;;;;;;;12.80;11.50;;;;;;;14.07;81.48;96099.09;1765327;80;20968;-80
2021/08/27 10:26:20;;;;;;;12.07;10.88;;;;;;;14.08;81.83;96100.69;1743249;82;20934;-80
2021/08/27 10:28:46;;;;;;;12.75;11.45;;;;;;;14.04;81.81;96098.21;1714191;80;21285;-81
2021/08/27 10:31:12;;;;;;;11.12;9.95;;;;;;;14.06;81.92;96104.53;1735083;80;20930;-80
2021/08/27 10:33:46;;;;;;;13.18;10.15;;;;;;;14.13;82.10;96098.75;1803541;78;20956;-80
2021/08/27 10:36:27;;;;;;;15.28;11.63;;;;;;;14.24;82.54;96094.67;1793089;78;21008;-80
2021/08/27 10:38:54;;;;;;;12.82;11.53;;;;;;;14.33;82.27;96092.91;1796787;78;21368;-80
2021/08/27 10:41:37;;;;;;;11.55;10.40;;;;;;;14.37;82.42;96094.59;1755398;80;21107;-80
2021/08/27 10:44:08;;;;;;;11.00;9.38;;;;;;;14.38;82.19;96098.29;1761860;79;21019;-81
2021/08/27 10:46:52;;;;;;;11.75;10.10;;;;;;;14.40;82.23;96100.18;1741232;81;21428;-80
2021/08/27 10:49:22;;;;;;;10.08;9.08;;;;;;;14.40;81.97;96098.87;1733536;81;21290;-80
2021/08/27 10:51:51;;;;;;;8.23;7.42;;;;;;;14.41;82.00;96100.98;1712043;82;20969;-80
2021/08/27 10:54:17;;;;;;;12.53;9.68;;;;;;;14.41;82.03;96096.55;1742977;81;21034;-81
2021/08/27 10:56:50;;;;;;;11.60;9.00;;;;;;;14.43;82.12;96102.88;1744507;81;21024;-80
2021/08/27 10:59:22;;;;;;;10.28;8.55;;;;;;;14.42;82.02;96099.46;1740679;81;21021;-81
2021/08/27 11:01:58;;;;;;;9.95;7.28;;;;;;;14.34;81.32;96103.66;1749231;81;21042;-80
2021/08/27 11:04:26;;;;;;;8.33;7.33;;;;;;;14.30;81.37;96101.66;1739437;81;21428;-80
2021/08/27 11:07:07;;;;;;;8.20;7.40;;;;;;;14.30;81.49;96105.06;1741932;81;21109;-80
2021/08/27 11:09:35;;;;;;;10.45;8.53;;;;;;;14.27;81.51;96096.34;1736045;81;20998;-81
2021/08/27 11:12:12;;;;;;;8.75;7.85;;;;;;;14.23;81.71;96100.41;1745823;81;21025;-80
2021/08/27 11:14:41;;;;;;;11.45;8.55;;;;;;;14.28;82.42;96100.56;1800810;78;20999;-80
2021/08/27 11:17:08;;;;;;;10.72;8.03;;;;;;;14.38;82.49;96100.11;1798356;79;21128;-80
2021/08/27 11:19:41;;;;;;;9.88;7.83;;;;;;;14.46;82.33;96106.39;1804047;78;20928;-80
2021/08/27 11:22:20;;;;;;;8.85;7.95;;;;;;;14.52;82.17;96105.56;1799322;78;20941;-81
2021/08/27 11:25:12;;;;;;;9.20;8.28;;;;;;;14.60;81.99;96103.98;1799322;78;20928;-80
2021/08/27 11:27:38;;;;;;;9.58;8.68;;;;;;;14.66;82.17;96107.06;1758397;80;21347;-80
2021/08/27 11:30:31;;;;;;;9.15;7.97;;;;;;;14.71;81.77;96101.98;1757521;80;21396;-81
2021/08/27 11:32:58;;;;;;;9.00;7.92;;;;;;;14.80;81.83;96103.01;1764900;81;20950;-81
2021/08/27 11:35:24;;;;;;;8.18;7.35;;;;;;;14.87;81.77;96101.16;1754247;80;21328;-80